Aérodrome :
LOGIN :

S'inscrire | Disclaimer

   EN    FR    IT 

 










Légende :    VFR   VFR Marginal   IFR   IFR Intensif   IFR Très Intensif
Visi : 
Plafond : 
>= 8 km
>= 3000ft
5 à 8 km
1000 à 3000 ft
1500m à 5 km
500 à 1000 ft
800 à 1500m
200 à 500 ft
< 800m
< 200 ft
Symboles :   Orages  Brouillard  Fortes neiges  Fortes précipitations  Vent > 20 kt
SIGMETs :   Divers  Orages  Givrage  Turbulence  Onde Orograph.  Cendres Volcan.






- Altitude de l'aérodrome : 240 ft
- Code IATA : VLC


LEVC - Valencia Manises

DERNIER METAR :
  • 202330Z 27002KT CAVOK 08/07 Q1027 NOSIG

METARs EXPIRÉS :
  • 202300Z 29003KT 270V330 CAVOK 08/07 Q1027 NOSIG
  • 202230Z 28004KT CAVOK 09/08 Q1027 NOSIG
  • 202200Z 29004KT CAVOK 09/08 Q1027 NOSIG
  • 202130Z 31004KT CAVOK 10/09 Q1027 NOSIG
  • 202100Z 34003KT 300V020 9999 FEW015 10/09 Q1027 NOSIG
  • 202030Z 35004KT 9999 FEW018 12/10 Q1027 NOSIG

TAF TAF LEVC
Valide du 21 à 00h jusqu'au 22 à 00h UTC


202300Z 2100/2124 32003KT 9999 FEW014 TX18/2113Z TN05/2106Z
PROB40
TEMPO 2100/2106 VRB03KT 4000 BR
BECMG 2110/2112 10006KT



MET'MAP, la Météo Aéronautique d'un coup d'oeil ! - Copyright ORBIFLY Décembre 2007 - Disclaimer

ORBIFLY MET'MAP TEAM :

Programmation & Développement : Alexandra Zaïnal
Sur une idée originale de : Baudouin d'Aumeries
Assistance à la programmation : Marc-Olivier Méhu
Soutien technique & logistique : Manuel Goepfert

Contact : metmap@orbifly.com




SOURCES & CREDITS :

   NOAA